• Join FlightAware (Why Join?)
  • Login
  • US Flag 
09:30PM EDT


 

Airport Tracker/Info


-or-


 

Live Flight TrackerFlight Track Log ✈ JZA8106 ✈ 07-Apr-2013 ✈ CYYC - KIAH

Flight Track Log - Related Links

Times and Time Zones

All times are in EDT time to prevent confusion due to time zone crossing. See the JZA8106 flight status page for this flight to view local times or setup timezone preferences in your user account.

Time Position Orientation Groundspeed Altitude Reporting Facility
EDT Latitude Longitude Course Direction KTS MPH feet Rate Location/Type
09:35PM 51.0833 -114.0333 360° North 10 12 3,500  Level Edmonton Center
09:38PM 51.1000 -114.0333 360° North 40 46 3,500  Level Edmonton Center
09:58PM 51.0833 -114.0333 180° South 10 12 3,500  Level Edmonton Center
10:02PM 51.0833 -114.0333 279° West 20 23 3,500  Level Edmonton Center
10:05PM 51.0833 -114.0333 279° West 20 23 3,500  Level Edmonton Center
10:07PM 51.0667 -114.0333 180° South 20 23 3,500  Level Edmonton Center
10:08PM 51.0667 -114.0333 261° West 10 12 3,500  Level Edmonton Center
10:11PM 51.0667 -114.0333 261° West 80 92 3,500 480 Level Edmonton Center
10:12PM 51.1167 -114.0333 360° North 180 207 5,500 2,100 Climbing Edmonton Center
10:13PM 51.1667 -114.0167 12° North 220 253 7,800 2,520 Climbing Edmonton Center
10:14PM 51.1500 -113.9333 108° East 240 276 10,600 2,160 Climbing Edmonton Center
10:15PM 51.0833 -113.9000 163° South 290 334 12,200 2,100 Climbing Edmonton Center
10:16PM 51.0000 -113.8833 173° South 300 345 14,800 2,340 Climbing Edmonton Center
10:17PM 50.9167 -113.8667 173° South 320 368 16,900 1,140 Climbing Edmonton Center
10:18PM 50.8167 -113.8500 174° South 380 437 17,100 960 Climbing Edmonton Center
10:19PM 50.7000 -113.8000 165° South 400 460 18,900 1,800 Climbing Edmonton Center
10:20PM 50.5833 -113.7667 170° South 410 472 20,800 1,680 Climbing Edmonton Center
10:21PM 50.4667 -113.7500 175° South 410 472 22,300 1,380 Climbing Edmonton Center
10:22PM 50.3500 -113.7167 170° South 420 483 23,600 1,260 Climbing Edmonton Center
10:23PM 50.2333 -113.7000 175° South 420 483 24,900 1,200 Climbing Edmonton Center
10:24PM 50.1167 -113.6500 165° South 430 495 26,000 1,200 Climbing Edmonton Center
10:25PM 50.0000 -113.6333 175° South 440 506 27,400 1,560 Climbing Edmonton Center
10:26PM 49.8667 -113.6000 171° South 430 495 29,200 1,560 Climbing Edmonton Center
10:27PM 49.7500 -113.5500 165° South 420 483 30,600 1,320 Climbing Edmonton Center
10:28PM 49.6500 -113.4833 157° South 430 495 31,900 1,140 Climbing Edmonton Center
10:29PM 49.5500 -113.3833 147° Southeast 420 483 32,900 720 Climbing Edmonton Center
10:30PM 49.4500 -113.2833 147° Southeast 430 495 33,400 780 Climbing Edmonton Center
10:31PM 49.3333 -113.1833 151° Southeast 440 506 34,500 780 Climbing Edmonton Center
10:32PM 49.2500 -113.1000 147° Southeast 440 506 35,000 660 Climbing Edmonton Center
10:33PM 49.1333 -112.9667 143° Southeast 450 518 35,900 600 Climbing Edmonton Center
10:34PM 49.0333 -112.8833 151° Southeast 440 506 36,300 480 Climbing Edmonton Center
10:35PM 48.9333 -112.7833 147° Southeast 440 506 36,900 420 Climbing Edmonton Center
10:36PM 48.8728 -112.6886 134° Southeast 453 521 37,200 300 Climbing Salt Lake Center
10:37PM 48.7508 -112.5775 149° Southeast 459 528 37,500 360 Climbing Salt Lake Center
10:38PM 48.6414 -112.4767 149° Southeast 462 532 38,000 420 Climbing Salt Lake Center
10:39PM 48.5328 -112.3786 149° Southeast 458 527 38,400 360 Climbing Salt Lake Center
10:40PM 48.4231 -112.2778 149° Southeast 461 531 38,800 240 Climbing Salt Lake Center
10:42PM 48.3133 -112.1794 149° Southeast 460 529 39,000 60 Climbing Salt Lake Center
10:43PM 48.1797 -112.0594 149° Southeast 466 536 39,000  Level Salt Lake Center
10:44PM 48.0675 -111.9578 149° Southeast 471 542 39,000  Level Salt Lake Center
10:45PM 47.9547 -111.8561 149° Southeast 475 547 39,000  Level Salt Lake Center
10:46PM 47.8414 -111.7567 149° Southeast 475 547 39,000  Level Salt Lake Center
10:47PM 47.7283 -111.6572 149° Southeast 477 549 39,000  Level Salt Lake Center
10:48PM 47.6161 -111.5581 149° Southeast 477 549 39,000  Level Salt Lake Center
10:49PM 47.4825 -111.4408 149° Southeast 478 550 39,000  Level Salt Lake Center
10:50PM 47.3778 -111.3256 143° Southeast 480 552 39,000  Level Salt Lake Center
10:51PM 47.2750 -111.2036 141° Southeast 481 554 39,000  Level Salt Lake Center
10:52PM 47.1725 -111.0803 141° Southeast 479 551 39,000  Level Salt Lake Center
10:53PM 47.0681 -110.9575 141° Southeast 482 555 39,000  Level Salt Lake Center
10:54PM 46.9436 -110.8108 141° Southeast 482 555 39,000  Level Salt Lake Center
10:55PM 46.8406 -110.6878 141° Southeast 481 554 39,000  Level Salt Lake Center
10:56PM 46.7356 -110.5664 142° Southeast 483 556 39,000  Level Salt Lake Center
10:57PM 46.6247 -110.4406 142° Southeast 483 556 39,000  Level Salt Lake Center
10:58PM 46.5242 -110.3242 141° Southeast 482 555 39,000  Level Salt Lake Center
10:59PM 46.4067 -110.1906 142° Southeast 482 555 39,000  Level Salt Lake Center
11:00PM 46.3058 -110.0744 141° Southeast 481 554 39,000  Level Salt Lake Center
11:01PM 46.1878 -109.9397 142° Southeast 483 556 39,000  Level Salt Lake Center
11:02PM 46.0861 -109.8253 142° Southeast 484 557 39,000  Level Salt Lake Center
11:03PM 45.9864 -109.7100 141° Southeast 481 554 39,000  Level Salt Lake Center
11:04PM 45.8669 -109.5767 142° Southeast 486 559 39,000  Level Salt Lake Center
11:05PM 45.7644 -109.4622 142° Southeast 489 563 39,000  Level Salt Lake Center
11:06PM 45.6611 -109.3486 142° Southeast 490 564 39,000  Level Salt Lake Center
11:07PM 45.5400 -109.2164 143° Southeast 491 565 39,000  Level Salt Lake Center
11:08PM 45.4358 -109.1022 142° Southeast 493 567 39,000  Level Salt Lake Center
11:09PM 45.3153 -108.9700 142° Southeast 490 564 39,000  Level Salt Lake Center
11:10PM 45.2111 -108.8594 143° Southeast 490 564 39,000  Level Salt Lake Center
11:11PM 45.1078 -108.7481 143° Southeast 490 564 39,000  Level Salt Lake Center
11:12PM 44.9883 -108.6183 142° Southeast 486 559 39,000  Level Salt Lake Center
11:13PM 44.8858 -108.5089 143° Southeast 485 558 39,000  Level Salt Lake Center
11:14PM 44.7672 -108.3786 142° Southeast 487 560 39,000  Level Salt Lake Center
11:15PM 44.6656 -108.2694 143° Southeast 486 559 39,000  Level Salt Lake Center
11:16PM 44.5464 -108.1411 142° Southeast 488 562 39,000  Level Salt Lake Center
11:17PM 44.4461 -108.0314 142° Southeast 484 557 39,000  Level Salt Lake Center
11:18PM 44.3442 -107.9214 142° Southeast 484 557 39,000  Level Salt Lake Center
11:19PM 44.2250 -107.7961 143° Southeast 483 556 39,000  Level Salt Lake Center
11:20PM 44.1231 -107.6858 142° Southeast 486 559 39,000  Level Salt Lake Center
11:21PM 44.0028 -107.5583 143° Southeast 488 562 39,000  Level Salt Lake Center
11:22PM 43.8972 -107.4533 144° Southeast 488 562 39,000  Level Salt Lake Center
11:23PM 43.7958 -107.3458 143° Southeast 485 558 39,000  Level Salt Lake Center
11:24PM 43.6783 -107.2181 142° Southeast 483 556 39,000  Level Salt Lake Center
11:26PM 43.5753 -107.1111 143° Southeast 486 559 39,000  Level Salt Lake Center
11:27PM 43.4583 -106.9894 143° Southeast 474 545 39,000  Level Salt Lake Center
11:27PM 43.3758 -106.9031 143° Southeast 470 541 39,000  Level Denver Center
11:28PM 43.2583 -106.7822 143° Southeast 471 542 39,000  Level Denver Center
11:30PM 43.1561 -106.6781 143° Southeast 478 550 39,000  Level Denver Center
11:31PM 43.0350 -106.5558 144° Southeast 484 557 39,000  Level Denver Center
11:32PM 42.9300 -106.4492 143° Southeast 490 564 39,000  Level Denver Center
11:33PM 42.7919 -106.3092 143° Southeast 487 560 39,000  Level Denver Center
11:34PM 42.6847 -106.2042 144° Southeast 495 570 39,000  Level Denver Center
11:36PM 42.4853 -106.0053 144° Southeast 472 543 39,000  Level Salt Lake Center
11:37PM 42.3889 -105.8986 141° Southeast 470 541 39,000  Level Salt Lake Center
11:38PM 42.2722 -105.7714 141° Southeast 480 552 39,000  Level Salt Lake Center
11:39PM 42.1625 -105.6478 140° Southeast 470 541 39,000  Level Denver Center
11:40PM 42.0658 -105.5386 140° Southeast 474 545 39,000  Level Denver Center
11:41PM 41.9522 -105.4142 141° Southeast 474 545 39,000  Level Denver Center
11:42PM 41.8536 -105.3061 141° Southeast 477 549 39,000  Level Denver Center
11:43PM 41.7558 -105.1961 140° Southeast 480 552 39,000  Level Denver Center
11:44PM 41.6436 -105.0764 141° Southeast 466 536 39,000  Level Denver Center
11:45PM 41.5494 -104.9717 140° Southeast 461 531 39,000  Level Denver Center
11:46PM 41.4389 -104.8522 141° Southeast 460 529 39,000  Level Denver Center
11:47PM 41.3422 -104.7481 141° Southeast 465 535 39,000  Level Denver Center
11:48PM 41.2450 -104.6458 142° Southeast 466 536 39,000  Level Denver Center
11:49PM 41.1308 -104.5203 140° Southeast 475 547 39,000  Level Denver Center
11:50PM 41.0314 -104.4147 141° Southeast 477 549 39,000  Level Denver Center
11:51PM 40.9167 -104.2958 142° Southeast 479 551 39,000  Level Denver Center
11:52PM 40.8094 -104.1814 141° Southeast 485 558 39,000  Level Denver Center
11:53PM 40.7028 -104.0711 142° Southeast 482 555 39,000  Level Denver Center
11:54PM 40.5964 -103.9583 141° Southeast 484 557 39,000  Level Denver Center
11:55PM 40.4906 -103.8469 141° Southeast 482 555 39,000  Level Denver Center
11:56PM 40.3842 -103.7372 142° Southeast 482 555 39,000  Level Denver Center
11:57PM 40.2786 -103.6275 142° Southeast 479 551 39,000  Level Denver Center
11:58PM 40.1728 -103.5194 142° Southeast 477 549 39,000  Level Denver Center
11:59PM 40.0658 -103.4094 142° Southeast 481 554 39,000  Level Denver Center
12:00AM 39.9597 -103.3000 142° Southeast 479 551 39,000  Level Denver Center
12:01AM 39.8525 -103.1917 142° Southeast 482 555 39,000  Level Denver Center
12:02AM 39.7458 -103.0844 142° Southeast 480 552 39,000  Level Denver Center
12:03AM 39.6397 -102.9769 142° Southeast 478 550 39,000  Level Denver Center
12:04AM 39.5339 -102.8711 142° Southeast 477 549 39,000  Level Denver Center
12:05AM 39.4253 -102.7628 142° Southeast 484 557 39,000  Level Denver Center
12:06AM 39.3108 -102.6475 142° Southeast 483 556 39,000  Level Denver Center
12:07AM 39.2075 -102.5469 143° Southeast 486 559 39,000  Level Denver Center
12:08AM 39.1050 -102.4458 143° Southeast 485 558 39,000  Level Denver Center
12:09AM 38.9867 -102.3281 142° Southeast 482 555 39,000  Level Denver Center
12:10AM 38.8839 -102.2281 143° Southeast 484 557 39,000  Level Denver Center
12:11AM 38.7811 -102.1278 143° Southeast 484 557 39,000  Level Denver Center
12:12AM 38.6611 -102.0100 143° Southeast 487 560 39,000  Level Denver Center
12:13AM 38.5578 -101.9089 143° Southeast 489 563 39,000  Level Denver Center
12:15AM 38.4361 -101.7922 143° Southeast 490 564 39,000  Level Denver Center
12:16AM 38.3328 -101.6925 143° Southeast 488 562 39,000  Level Denver Center
12:17AM 38.2292 -101.5928 143° Southeast 487 560 39,000  Level Denver Center
12:18AM 38.1081 -101.4767 143° Southeast 490 564 39,000  Level Denver Center
12:19AM 38.0042 -101.3786 143° Southeast 487 560 39,000  Level Denver Center
12:20AM 37.8994 -101.2792 143° Southeast 491 565 39,000  Level Denver Center
12:20AM 37.8478 -101.2306 143° Southeast 489 563 39,000  Level Kansas City Center
12:21AM 37.7494 -101.1386 144° Southeast 487 560 39,000  Level Kansas City Center
12:22AM 37.6169 -101.0164 144° Southeast 489 563 39,000  Level Kansas City Center
12:23AM 37.5081 -100.9119 143° Southeast 490 564 39,000  Level Kansas City Center
12:24AM 37.4022 -100.8125 143° Southeast 487 560 39,000  Level Kansas City Center
12:25AM 37.2975 -100.7158 144° Southeast 488 562 39,000  Level Kansas City Center
12:26AM 37.1942 -100.6200 144° Southeast 485 558 39,000  Level Kansas City Center
12:27AM 37.0739 -100.5089 144° Southeast 483 556 39,000  Level Kansas City Center
12:28AM 36.9711 -100.4136 143° Southeast 481 554 39,000  Level Kansas City Center
12:29AM 36.8664 -100.3186 144° Southeast 484 557 39,000  Level Kansas City Center
12:30AM 36.7439 -100.2092 144° Southeast 484 557 39,000  Level Kansas City Center
12:31AM 36.6372 -100.1103 143° Southeast 484 557 39,000  Level Kansas City Center
12:32AM 36.5283 -100.0117 144° Southeast 484 557 39,000  Level Kansas City Center
12:33AM 36.4200 -99.9125 144° Southeast 483 556 39,000  Level Kansas City Center
12:34AM 36.3108 -99.8158 144° Southeast 482 555 39,000  Level Kansas City Center
12:35AM 36.2017 -99.7186 144° Southeast 483 556 39,000  Level Kansas City Center
12:36AM 36.0925 -99.6208 144° Southeast 485 558 39,000  Level Kansas City Center
12:37AM 35.9819 -99.5225 144° Southeast 491 565 39,000  Level Kansas City Center
12:38AM 35.8722 -99.4267 145° Southeast 490 564 39,000  Level Kansas City Center
12:39AM 35.7544 -99.3222 144° Southeast 491 565 39,000  Level Kansas City Center
12:40AM 35.6483 -99.2425 149° Southeast 487 560 39,000  Level Kansas City Center
12:41AM 35.5331 -99.1578 149° Southeast 484 557 39,000  Level Kansas City Center
12:42AM 35.4189 -99.0728 149° Southeast 482 555 39,000  Level Kansas City Center
12:43AM 35.3033 -98.9867 149° Southeast 484 557 39,000  Level Kansas City Center
12:44AM 35.1639 -98.8864 150° Southeast 485 558 39,000  Level Fort Worth Center
12:45AM 35.0503 -98.8008 148° Southeast 485 558 39,000  Level Fort Worth Center
12:46AM 34.9467 -98.7256 149° Southeast 485 558 39,000  Level Fort Worth Center
12:47AM 34.8308 -98.6403 149° Southeast 485 558 39,000  Level Fort Worth Center
12:48AM 34.7147 -98.5578 150° Southeast 485 558 39,000  Level Fort Worth Center
12:49AM 34.5986 -98.4806 151° Southeast 480 552 39,000  Level Fort Worth Center
12:50AM 34.4867 -98.3986 149° Southeast 480 552 39,000  Level Fort Worth Center
12:51AM 34.3744 -98.3194 150° Southeast 475 547 39,000  Level Fort Worth Center
12:52AM 34.2644 -98.2403 149° Southeast 470 541 39,000  Level Fort Worth Center
12:53AM 34.1544 -98.1614 149° Southeast 465 535 39,000  Level Fort Worth Center
12:54AM 34.0358 -98.0728 148° Southeast 459 528 39,000  Level Fort Worth Center
12:55AM 33.9300 -97.9967 149° Southeast 459 528 39,000  Level Fort Worth Center
12:56AM 33.8197 -97.9186 150° Southeast 453 521 39,000  Level Fort Worth Center
12:57AM 33.7092 -97.8406 150° Southeast 458 527 39,000  Level Fort Worth Center
12:58AM 33.6011 -97.7650 150° Southeast 458 527 39,000  Level Fort Worth Center
12:59AM 33.5011 -97.6975 151° Southeast 458 527 39,000  Level Fort Worth Center
01:00AM 33.3925 -97.6200 149° Southeast 458 527 39,000  Level Fort Worth Center
01:01AM 33.2842 -97.5453 150° Southeast 463 533 39,000  Level Fort Worth Center
01:02AM 33.1736 -97.4681 150° Southeast 463 533 39,000  Level Fort Worth Center
01:03AM 33.0650 -97.3961 151° Southeast 458 527 39,000  Level Fort Worth Center
01:04AM 32.9522 -97.3169 149° Southeast 463 533 39,000  Level Fort Worth Center
01:05AM 32.8292 -97.2306 149° Southeast 468 539 39,000  Level Fort Worth Center
01:06AM 32.7267 -97.1614 150° Southeast 473 544 39,000  Level Fort Worth Center
01:07AM 32.6181 -97.0878 150° Southeast 457 526 39,000  Level Fort Worth Center
01:08AM 32.5069 -97.0094 149° Southeast 457 526 39,000  Level Fort Worth Center
01:09AM 32.3961 -96.9336 150° Southeast 467 537 39,000  Level Fort Worth Center
01:10AM 32.2831 -96.8581 151° Southeast 467 537 39,000  Level Fort Worth Center
01:11AM 32.1700 -96.7850 151° Southeast 459 528 39,000  Level Fort Worth Center
01:12AM 32.0486 -96.7000 149° Southeast 464 534 39,000  Level Fort Worth Center
01:13AM 31.9478 -96.6372 152° Southeast 459 528 39,000  Level Fort Worth Center
01:14AM 31.8306 -96.5819 158° South 446 513 39,000  Level Fort Worth Center
01:17AM 31.5336 -96.4342 157° South 458 527 39,000 -360 Level Houston Center
01:18AM 31.4144 -96.3778 158° South 455 524 37,800 -1,980 Descending Houston Center
01:19AM 31.2981 -96.3183 156° South 452 520 35,100 -2,820 Descending Houston Center
01:20AM 31.1808 -96.2622 158° South 449 517 32,200 -2,880 Descending Houston Center
01:21AM 31.0639 -96.2044 157° South 449 517 29,300 -2,940 Descending Houston Center
01:22AM 30.9400 -96.1442 157° South 470 541 26,300 -3,000 Descending Houston Center
01:22AM 30.8886 -96.1189 157° South 470 541 25,000 -2,940 Descending Houston Center
01:23AM 30.8236 -96.0864 157° South 452 520 23,400 -2,940 Descending Houston Center
01:23AM 30.7594 -96.0558 158° South 437 503 21,800 -2,400 Descending Houston Center
01:24AM 30.7244 -96.0392 158° South 437 503 21,000 -2,820 Descending Houston Center
01:24AM 30.6369 -95.9969 157° South 436 502 18,700 -3,240 Descending Houston Center
01:25AM 30.6000 -95.9778 156° South 437 503 17,800 -2,820 Descending Houston Center
01:25AM 30.5275 -95.9442 158° South 432 497 15,900 -2,820 Descending Houston Center
01:26AM 30.4908 -95.9253 156° South 427 491 15,000 -3,000 Descending Houston Center
01:26AM 30.4178 -95.8889 157° South 409 471 12,900 -2,760 Descending Houston Center
01:27AM 30.3872 -95.8750 159° South 409 471 12,200 -2,460 Descending Houston Center
01:27AM 30.3147 -95.8403 158° South 374 430 10,400 -1,800 Descending Houston Center
01:28AM 30.2908 -95.8283 157° South 386 444 10,400 -300 Level Houston Center
01:28AM 30.2358 -95.8011 157° South 282 325 10,100 -840 Descending Houston Center
01:29AM 30.2169 -95.7919 157° South 303 349 9,600 -2,100 Descending Houston Center
01:29AM 30.1658 -95.7683 158° South 272 313 8,000 -2,040 Descending Houston Center
01:30AM 30.1469 -95.7597 158° South 275 316 7,600 -1,740 Descending Houston Center
01:30AM 30.0956 -95.7353 158° South 269 310 6,300 -1,620 Descending Houston Center
01:31AM 30.0789 -95.7264 155° Southeast 269 310 6,000 -1,620 Descending Houston Center
01:31AM 30.0319 -95.7042 158° South 241 277 4,700 -1,740 Descending Houston Center
01:32AM 30.0164 -95.6972 159° South 246 283 4,300 -600 Descending Houston Center
01:33AM 29.9917 -95.6511 122° Southeast 226 260 4,100 -240 Descending Houston Center
01:33AM 29.9925 -95.6342 87° East 226 260 4,100  Level Houston Center
01:34AM 29.9925 -95.5908 90° East 177 204 4,100 -120 Level Houston Center
01:34AM 29.9939 -95.5747 84° East 190 219 4,000 -1,020 Descending Houston Center
01:35AM 29.9931 -95.5278 91° East 166 191 3,000 -1,020 Descending Houston Center
01:36AM 29.9931 -95.4797 90° East 150 173 2,200 -780 Descending Houston Center
01:37AM 29.9928 -95.4314 90° East 151 174 1,500 -720 Descending Houston Center